Enroute Instrument Rating: EIR(A)

Flugschule

Flugschule

Wir bieten eine professionelle und umfassende Ausbildung.

Flugwetter Augsburg

[Quelle: ADDS]
METAR
EDMA 161850Z 07003KT CAVOK 23/13 Q1015 =
EDMA 161700Z 1618/1703 VRB03KT CAVOK
TAF
EDMA 161700Z 1618/1703 VRB03KT CAVOK =

Kontakt

Basic Instrument Rating - BIR (A)

- Text folgt -